Time;durP1;ratioP1;P1;durP2;ratioP2;P2;SDS_P1;SDS_P2;PMS_P1;PMS_P2;Temp;Humidity;BMP_temperature;BMP_pressure;BME280_temperature;BME280_humidity;BME280_pressure;Samples;Min_cycle;Max_cycle;Signal;HPM_P1;HPM_P2
2022/01/22 00:00:00;;;;;;;16.15;2.75;;;9.30;99.90;;;;;;5108230;27;20045;-74
2022/01/22 00:02:26;;;;;;;12.05;2.20;;;11.60;99.90;;;;;;5109474;27;20042;-74
2022/01/22 00:04:51;;;;;;;7.90;2.05;;;10.90;99.90;;;;;;5078147;27;20042;-74
2022/01/22 00:07:17;;;;;;;13.90;2.00;;;11.90;99.90;;;;;;5125570;27;20054;-75
2022/01/22 00:09:50;;;;;;;14.05;2.97;;;12.30;99.90;;;;;;5111799;27;20432;-73
2022/01/22 00:12:29;;;;;;;16.27;3.22;;;9.80;99.90;;;;;;5095932;27;20042;-75
2022/01/22 00:14:55;;;;;;;12.20;2.00;;;9.50;99.90;;;;;;5127616;27;20530;-73
2022/01/22 00:17:20;;;;;;;10.85;1.80;;;9.40;99.90;;;;;;5065811;27;20050;-75
2022/01/22 00:19:46;;;;;;;12.27;1.55;;;9.40;99.90;;;;;;5107958;27;20403;-74
2022/01/22 00:22:12;;;;;;;6.32;1.40;;;12.30;99.90;;;;;;5114866;27;20034;-76
2022/01/22 00:24:39;;;;;;;9.07;1.73;;;12.10;99.90;;;;;;5134788;27;20118;-77
2022/01/22 00:27:06;;;;;;;7.63;1.88;;;10.00;99.90;;;;;;5131611;27;20343;-76
2022/01/22 00:29:31;;;;;;;8.95;1.40;;;9.40;99.90;;;;;;5134609;27;20050;-77
2022/01/22 00:31:57;;;;;;;9.25;1.73;;;12.40;99.90;;;;;;5116218;27;20039;-77
2022/01/22 00:34:23;;;;;;;6.05;1.40;;;11.70;99.90;;;;;;5116869;27;20118;-74
2022/01/22 00:36:49;;;;;;;7.07;1.10;;;9.40;99.90;;;;;;5133850;27;20455;-77
2022/01/22 00:39:15;;;;;;;8.65;1.48;;;9.50;99.90;;;;;;5116850;27;20047;-75
2022/01/22 00:41:40;;;;;;;9.30;1.38;;;12.20;99.90;;;;;;5133250;27;20140;-77
2022/01/22 00:44:06;;;;;;;7.28;1.63;;;9.90;99.90;;;;;;5113553;27;20047;-77
2022/01/22 00:46:32;;;;;;;10.23;1.52;;;11.80;99.90;;;;;;5113396;27;20035;-76
2022/01/22 00:48:58;;;;;;;7.15;1.52;;;12.40;99.90;;;;;;5120641;27;20073;-77
2022/01/22 00:51:24;;;;;;;4.45;1.20;;;12.20;99.90;;;;;;5117394;27;20487;-77
2022/01/22 00:53:50;;;;;;;6.15;1.23;;;12.30;99.90;;;;;;5115842;27;20047;-76
2022/01/22 00:56:16;;;;;;;9.30;1.70;;;11.50;99.90;;;;;;5133452;27;20062;-78
2022/01/22 00:58:42;;;;;;;13.23;2.08;;;11.40;99.90;;;;;;5131214;27;20466;-79
2022/01/22 01:01:08;;;;;;;3.35;1.48;;;12.20;99.90;;;;;;5134944;27;20035;-77
2022/01/22 01:03:34;;;;;;;8.13;1.95;;;10.40;99.90;;;;;;5117600;27;20051;-78
2022/01/22 01:06:04;;;;;;;7.20;1.90;;;10.20;99.90;;;;;;5109602;27;20039;-77
2022/01/22 01:08:32;;;;;;;7.85;1.45;;;10.60;99.90;;;;;;5133653;27;20042;-77
2022/01/22 01:10:58;;;;;;;5.22;1.05;;;10.70;99.90;;;;;;5134640;27;20056;-77
2022/01/22 01:13:26;;;;;;;9.75;1.52;;;10.30;99.90;;;;;;5133134;27;20042;-77
2022/01/22 01:16:14;;;;;;;7.60;1.75;;;12.30;99.90;;;;;;5083508;27;20042;-77
2022/01/22 01:32:30;;;;;;;4.88;1.40;;;12.00;99.90;;;;;;5134000;27;20065;-76
2022/01/22 01:34:57;;;;;;;8.98;1.27;;;12.40;99.90;;;;;;5118548;27;20037;-78
2022/01/22 01:37:23;;;;;;;5.38;1.40;;;12.40;99.90;;;;;;5100335;27;20046;-78
2022/01/22 01:39:53;;;;;;;6.32;1.33;;;10.10;99.90;;;;;;5133104;27;20039;-78
2022/01/22 01:42:28;;;;;;;6.90;1.30;;;11.10;99.90;;;;;;5111668;27;20045;-76
2022/01/22 01:44:56;;;;;;;7.45;1.38;;;11.30;99.90;;;;;;5117509;27;20050;-76
2022/01/22 01:47:22;;;;;;;9.18;1.58;;;9.80;99.90;;;;;;5133409;27;20048;-77
2022/01/22 01:49:47;;;;;;;6.20;1.23;;;11.60;99.90;;;;;;5083730;27;20545;-76
2022/01/22 01:52:22;;;;;;;7.82;2.10;;;9.50;99.90;;;;;;5099113;27;20035;-76
2022/01/22 01:55:02;;;;;;;9.52;1.80;;;12.30;99.90;;;;;;5116407;27;20074;-76
2022/01/22 01:57:41;;;;;;;4.15;1.20;;;10.50;99.90;;;;;;5131717;27;20087;-76
2022/01/22 02:00:20;;;;;;;6.32;2.00;;;12.20;99.90;;;;;;5116070;27;20490;-77
2022/01/22 02:02:47;;;;;;;8.77;1.70;;;12.40;99.90;;;;;;5130028;27;20117;-77
2022/01/22 02:05:13;;;;;;;4.15;1.08;;;11.70;99.90;;;;;;5115714;27;20038;-78
2022/01/22 02:07:42;;;;;;;8.90;1.90;;;11.60;99.90;;;;;;5132698;27;20096;-76
2022/01/22 02:10:09;;;;;;;7.22;1.73;;;12.50;99.90;;;;;;5116232;27;20050;-77
2022/01/22 02:26:10;;;;;;;11.07;1.67;;;12.40;99.90;;;;;;5110047;27;20050;-79
2022/01/22 02:28:36;;;;;;;7.93;1.50;;;12.10;99.90;;;;;;5097829;27;20383;-76
2022/01/22 02:31:59;;;;;;;7.60;1.63;;;12.00;99.90;;;;;;5132771;27;20121;-76
2022/01/22 02:34:03;;;;;;;9.93;1.65;;;9.30;99.90;;;;;;5120047;27;20069;-77
2022/01/22 02:37:16;;;;;;;10.77;2.03;;;12.40;99.90;;;;;;5132693;27;20516;-76
2022/01/22 02:39:21;;;;;;;10.07;2.05;;;11.20;99.90;;;;;;5121289;27;20046;-76
2022/01/22 02:41:50;;;;;;;9.90;1.90;;;10.60;99.90;;;;;;5131562;27;20044;-77
2022/01/22 02:44:32;;;;;;;11.48;1.90;;;12.10;99.90;;;;;;5117058;27;20101;-77
2022/01/22 02:46:58;;;;;;;8.43;1.67;;;10.30;99.90;;;;;;5100334;27;20049;-79
2022/01/22 02:49:24;;;;;;;5.00;1.30;;;9.30;99.90;;;;;;5086217;28;20035;-79
2022/01/22 02:51:49;;;;;;;3.75;1.25;;;10.10;99.90;;;;;;5097455;28;20054;-77
2022/01/22 02:54:16;;;;;;;9.23;1.45;;;9.90;99.90;;;;;;5113020;28;20039;-78
2022/01/22 02:56:41;;;;;;;4.28;1.55;;;10.30;99.90;;;;;;5096416;27;20031;-79
2022/01/22 02:59:07;;;;;;;3.97;1.08;;;10.50;99.90;;;;;;5069282;27;20102;-79
2022/01/22 03:01:33;;;;;;;5.90;1.63;;;9.40;99.90;;;;;;5104542;28;20471;-77
2022/01/22 03:03:58;;;;;;;4.88;0.95;;;11.90;99.90;;;;;;5110556;27;20051;-79
2022/01/22 03:06:24;;;;;;;9.48;1.50;;;11.30;99.90;;;;;;5116149;27;20475;-77
2022/01/22 03:08:50;;;;;;;8.43;1.58;;;9.50;99.90;;;;;;5102761;27;20035;-79
2022/01/22 03:11:19;;;;;;;4.95;1.20;;;10.10;99.90;;;;;;5115630;27;20125;-77
2022/01/22 03:19:11;;;;;;;6.47;1.85;;;9.70;99.90;;;;;;5131627;27;20095;-78
2022/01/22 03:21:56;;;;;;;6.57;1.20;;;11.50;99.90;;;;;;5102239;28;20046;-79
2022/01/22 03:27:39;;;;;;;6.25;1.70;;;9.20;99.90;;;;;;5106890;27;20107;-76
2022/01/22 03:29:59;;;;;;;6.72;1.77;;;12.30;99.90;;;;;;5114816;27;20039;-77
2022/01/22 03:32:28;;;;;;;9.05;1.40;;;9.40;99.90;;;;;;5132380;27;20043;-77
2022/01/22 03:35:09;;;;;;;10.88;1.98;;;9.70;99.90;;;;;;5130504;27;20381;-75
2022/01/22 03:37:37;;;;;;;6.10;1.15;;;9.70;99.90;;;;;;5112144;27;20133;-75
2022/01/22 03:40:03;;;;;;;4.10;1.05;;;12.30;99.90;;;;;;5134370;27;20045;-77
2022/01/22 03:42:29;;;;;;;5.95;1.10;;;12.30;99.90;;;;;;5113944;27;20397;-77
2022/01/22 03:44:55;;;;;;;3.88;1.13;;;9.80;99.90;;;;;;5135078;27;20042;-78
2022/01/22 03:47:20;;;;;;;4.45;1.35;;;11.90;99.90;;;;;;5130375;27;20039;-79
2022/01/22 03:49:46;;;;;;;10.20;1.27;;;10.00;99.90;;;;;;5106688;27;20069;-75
2022/01/22 03:52:12;;;;;;;4.60;2.13;;;10.30;99.90;;;;;;5117830;27;20166;-77
2022/01/22 03:54:38;;;;;;;4.03;1.30;;;10.60;99.90;;;;;;5091979;27;20487;-77
2022/01/22 03:57:06;;;;;;;6.85;1.35;;;9.70;99.90;;;;;;5098678;27;20027;-77
2022/01/22 03:59:32;;;;;;;6.10;1.48;;;11.30;99.90;;;;;;5118422;27;20407;-75
2022/01/22 04:09:45;;;;;;;6.28;1.42;;;12.00;99.90;;;;;;5120721;27;20534;-76
2022/01/22 04:12:19;;;;;;;7.10;1.15;;;11.90;99.90;;;;;;5132897;27;20043;-76
2022/01/22 04:14:51;;;;;;;7.35;1.98;;;12.20;99.90;;;;;;5113814;27;20027;-77
2022/01/22 04:24:48;;;;;;;5.85;1.77;;;12.10;99.90;;;;;;5099858;27;20100;-77
2022/01/22 04:25:37;;;;;;;5.03;0.98;;;10.50;99.90;;;;;;5122804;27;20034;-77
2022/01/22 04:28:03;;;;;;;5.78;1.55;;;10.80;99.90;;;;;;5131293;27;20055;-77
2022/01/22 04:30:29;;;;;;;4.50;1.55;;;10.50;99.90;;;;;;5080451;27;20049;-75
2022/01/22 04:32:55;;;;;;;8.15;1.45;;;11.60;99.90;;;;;;5133015;27;20039;-77
2022/01/22 04:35:22;;;;;;;2.92;1.10;;;11.20;99.90;;;;;;5134617;27;20118;-76
2022/01/22 04:37:49;;;;;;;6.05;1.08;;;12.10;99.90;;;;;;5135085;27;20042;-77
2022/01/22 04:40:15;;;;;;;5.82;1.67;;;12.10;99.90;;;;;;5134729;27;20126;-79
2022/01/22 04:42:42;;;;;;;6.22;1.45;;;12.10;99.90;;;;;;5114722;27;20039;-77
2022/01/22 04:45:44;;;;;;;4.90;1.55;;;10.10;99.90;;;;;;5096498;27;20034;-76
2022/01/22 04:48:25;;;;;;;6.97;1.42;;;9.20;99.90;;;;;;5116723;27;20066;-79
2022/01/22 04:56:19;;;;;;;6.70;1.77;;;12.10;99.90;;;;;;5118058;27;20049;-75
2022/01/22 04:58:45;;;;;;;9.63;1.73;;;11.50;99.90;;;;;;5116734;27;20039;-77
2022/01/22 05:01:11;;;;;;;5.57;1.13;;;10.30;99.90;;;;;;5129413;27;20035;-75
2022/01/22 05:03:36;;;;;;;6.18;1.33;;;11.20;99.90;;;;;;5114840;27;20043;-75
2022/01/22 05:06:06;;;;;;;5.63;1.60;;;12.00;99.90;;;;;;5099825;27;20170;-79
2022/01/22 05:08:32;;;;;;;6.10;1.40;;;12.00;99.90;;;;;;5118833;27;20065;-77
2022/01/22 05:10:58;;;;;;;4.18;1.33;;;11.60;99.90;;;;;;5134530;27;20471;-77
2022/01/22 05:13:24;;;;;;;5.82;1.42;;;9.80;99.90;;;;;;5099570;27;20077;-77
2022/01/22 05:15:49;;;;;;;4.78;1.50;;;11.40;99.90;;;;;;5129415;27;20039;-76
2022/01/22 05:18:16;;;;;;;8.60;1.77;;;10.00;99.90;;;;;;5114712;27;20126;-79
2022/01/22 05:20:48;;;;;;;9.27;1.70;;;11.20;99.90;;;;;;5098917;27;20043;-79
2022/01/22 05:23:19;;;;;;;5.65;1.38;;;9.20;99.90;;;;;;5116926;27;20046;-78
2022/01/22 05:25:54;;;;;;;4.43;1.00;;;11.30;99.90;;;;;;5114784;27;20049;-77
2022/01/22 05:31:05;;;;;;;4.63;1.30;;;9.70;99.90;;;;;;5130593;27;20141;-75
2022/01/22 05:36:55;;;;;;;4.22;0.90;;;10.10;99.90;;;;;;5118249;27;20038;-75
2022/01/22 05:39:09;;;;;;;6.18;1.90;;;9.30;99.90;;;;;;5132750;27;20047;-77
2022/01/22 05:41:38;;;;;;;6.75;1.52;;;10.90;99.90;;;;;;5120411;27;20031;-75
2022/01/22 05:44:04;;;;;;;6.68;1.90;;;12.00;99.90;;;;;;5128848;27;20087;-76
2022/01/22 05:46:29;;;;;;;4.82;1.40;;;10.10;99.90;;;;;;5116271;27;20042;-76
2022/01/22 05:48:55;;;;;;;8.27;2.28;;;9.50;99.90;;;;;;5098726;27;22240;-75
2022/01/22 05:51:21;;;;;;;6.30;1.50;;;9.30;99.90;;;;;;5134949;27;20062;-74
2022/01/22 05:54:16;;;;;;;8.90;1.73;;;10.20;99.90;;;;;;5133165;27;20030;-76
2022/01/22 05:59:39;;;;;;;6.35;1.15;;;12.20;99.90;;;;;;5131173;27;20046;-75
2022/01/22 06:02:06;;;;;;;11.32;1.50;;;12.30;99.90;;;;;;5112722;27;20047;-77
2022/01/22 06:04:32;;;;;;;9.82;1.60;;;9.10;99.90;;;;;;5122497;27;20035;-77
2022/01/22 06:06:57;;;;;;;7.28;1.30;;;9.10;99.90;;;;;;5098771;27;20042;-78
2022/01/22 06:09:25;;;;;;;10.57;2.65;;;12.10;99.90;;;;;;5112666;27;20046;-74
2022/01/22 06:11:55;;;;;;;8.73;1.60;;;11.80;99.90;;;;;;5095898;27;20070;-75
2022/01/22 06:14:21;;;;;;;4.97;1.48;;;9.40;99.90;;;;;;5118628;27;20406;-76
2022/01/22 06:16:46;;;;;;;7.53;1.80;;;12.20;99.90;;;;;;5112246;27;20035;-75
2022/01/22 06:19:12;;;;;;;9.77;1.83;;;10.10;99.90;;;;;;5127674;27;20038;-78
2022/01/22 06:21:38;;;;;;;4.30;1.80;;;11.70;99.90;;;;;;5095231;27;20037;-75
2022/01/22 06:24:04;;;;;;;11.55;1.77;;;10.30;99.90;;;;;;5097031;27;20434;-75
2022/01/22 06:26:30;;;;;;;4.18;1.48;;;10.50;99.90;;;;;;5087786;27;20047;-77
2022/01/22 06:28:55;;;;;;;7.93;2.17;;;9.60;99.90;;;;;;5099300;27;20054;-78
2022/01/22 06:31:21;;;;;;;4.80;1.38;;;10.10;99.90;;;;;;5096565;28;20035;-77
2022/01/22 06:33:47;;;;;;;6.40;1.58;;;12.00;99.90;;;;;;5113156;27;20043;-71
2022/01/22 06:36:13;;;;;;;8.60;1.80;;;11.60;99.90;;;;;;5110672;27;20042;-77
2022/01/22 06:38:38;;;;;;;10.13;2.20;;;11.00;99.90;;;;;;5125409;28;20038;-76
2022/01/22 06:43:48;;;;;;;10.20;1.48;;;9.80;99.90;;;;;;5130952;27;20407;-76
2022/01/22 06:46:14;;;;;;;5.15;1.52;;;10.80;99.90;;;;;;5132382;27;20050;-76
2022/01/22 06:48:40;;;;;;;9.95;1.60;;;9.10;99.90;;;;;;5116979;27;20035;-77
2022/01/22 06:51:06;;;;;;;8.07;1.35;;;11.60;99.90;;;;;;5128086;27;20069;-78
2022/01/22 06:53:36;;;;;;;5.45;1.20;;;9.60;99.90;;;;;;5115711;27;20074;-78
2022/01/22 06:56:04;;;;;;;4.22;1.10;;;11.90;99.90;;;;;;5107968;27;20789;-73
2022/01/22 06:58:29;;;;;;;4.40;1.33;;;11.90;99.90;;;;;;5103688;27;20074;-76
2022/01/22 07:00:56;;;;;;;3.88;1.65;;;9.30;99.90;;;;;;5129057;27;20111;-74
2022/01/22 07:03:22;;;;;;;3.00;1.48;;;12.00;99.90;;;;;;5115046;27;20062;-76
2022/01/22 07:05:47;;;;;;;5.90;1.50;;;10.60;99.90;;;;;;5092987;27;20114;-74
2022/01/22 07:08:13;;;;;;;9.57;2.92;;;11.90;99.90;;;;;;5130701;27;20178;-75
2022/01/22 07:10:39;;;;;;;5.90;1.30;;;11.90;99.90;;;;;;5111455;27;20054;-76
2022/01/22 07:13:05;;;;;;;6.63;1.23;;;9.30;99.90;;;;;;5136859;27;20054;-73
2022/01/22 07:15:30;;;;;;;9.07;1.60;;;11.60;99.90;;;;;;5135956;27;20139;-73
2022/01/22 07:17:56;;;;;;;12.25;1.67;;;10.20;99.90;;;;;;5136532;27;20075;-74
2022/01/22 07:20:28;;;;;;;9.82;1.40;;;11.20;99.90;;;;;;5114233;27;20362;-75
2022/01/22 07:23:02;;;;;;;5.22;1.38;;;8.90;99.90;;;;;;5118248;27;20038;-75
2022/01/22 07:25:29;;;;;;;8.60;1.65;;;9.40;99.90;;;;;;5134819;27;20034;-75
2022/01/22 07:27:56;;;;;;;6.90;1.30;;;11.60;99.90;;;;;;5136352;27;20614;-76
2022/01/22 07:30:22;;;;;;;2.22;1.23;;;9.00;99.90;;;;;;5084913;27;20165;-75
2022/01/22 07:32:48;;;;;;;7.20;1.65;;;9.20;99.90;;;;;;5113393;27;20135;-77
2022/01/22 07:35:17;;;;;;;15.10;2.05;;;9.00;99.90;;;;;;5116270;27;20047;-76
2022/01/22 07:37:43;;;;;;;3.33;1.02;;;11.50;99.90;;;;;;5125200;27;20045;-75
2022/01/22 07:40:10;;;;;;;5.43;1.15;;;11.80;99.90;;;;;;5135096;27;20031;-75
2022/01/22 07:42:37;;;;;;;6.97;1.30;;;11.60;99.90;;;;;;5116403;27;20084;-75
2022/01/22 07:45:03;;;;;;;4.40;1.20;;;11.80;99.90;;;;;;5102242;27;20499;-75
2022/01/22 07:47:48;;;;;;;3.70;0.95;;;8.90;99.90;;;;;;5134445;27;20087;-75
2022/01/22 07:50:13;;;;;;;2.05;0.95;;;10.00;99.90;;;;;;5116749;27;20034;-74
2022/01/22 07:52:39;;;;;;;5.15;1.08;;;9.60;99.90;;;;;;5133957;27;20125;-75
2022/01/22 07:55:07;;;;;;;5.57;1.00;;;11.80;99.90;;;;;;5135569;27;20572;-76
2022/01/22 07:57:33;;;;;;;5.47;1.13;;;11.20;99.90;;;;;;5117774;27;20031;-75
2022/01/22 07:59:59;;;;;;;2.15;1.10;;;9.20;99.90;;;;;;5106608;27;20050;-77
2022/01/22 08:02:25;;;;;;;3.33;1.10;;;8.90;99.90;;;;;;5107296;27;20039;-73
2022/01/22 08:04:51;;;;;;;6.75;1.35;;;10.60;99.90;;;;;;5128362;27;20376;-76
2022/01/22 08:07:16;;;;;;;3.65;1.35;;;11.20;99.90;;;;;;5115015;27;20031;-74
2022/01/22 08:09:43;;;;;;;7.13;1.75;;;10.40;99.90;;;;;;5106523;27;20413;-75
2022/01/22 08:12:09;;;;;;;7.15;0.95;;;9.40;99.90;;;;;;5118104;27;20035;-77
2022/01/22 08:14:35;;;;;;;7.72;1.00;;;9.00;99.90;;;;;;5067517;27;20043;-76
2022/01/22 08:17:01;;;;;;;6.43;1.02;;;11.70;99.90;;;;;;5099712;27;20479;-77
2022/01/22 08:19:26;;;;;;;2.78;1.05;;;11.00;99.90;;;;;;5134821;27;20482;-77
2022/01/22 08:21:53;;;;;;;5.75;1.35;;;11.10;99.90;;;;;;5133734;27;20031;-77
2022/01/22 08:24:23;;;;;;;1.30;0.88;;;11.90;99.90;;;;;;5092080;27;20042;-76
2022/01/22 08:27:04;;;;;;;5.35;1.23;;;9.40;99.90;;;;;;5134107;27;20154;-74
2022/01/22 08:29:30;;;;;;;7.35;1.33;;;11.60;99.90;;;;;;5117551;27;20047;-76
2022/01/22 08:32:10;;;;;;;3.88;1.52;;;10.30;99.90;;;;;;5102375;27;20427;-75
2022/01/22 08:37:21;;;;;;;3.35;1.23;;;10.90;99.90;;;;;;5134154;27;20141;-76
2022/01/22 08:39:47;;;;;;;5.32;1.10;;;11.50;99.90;;;;;;5104167;27;20119;-75
2022/01/22 08:42:13;;;;;;;4.70;1.48;;;9.00;99.90;;;;;;5128098;27;20050;-75
2022/01/22 08:44:40;;;;;;;9.43;1.95;;;11.30;99.90;;;;;;5128504;27;20043;-76
2022/01/22 08:47:06;;;;;;;4.18;1.50;;;9.00;99.90;;;;;;5131123;27;20035;-73
2022/01/22 08:49:32;;;;;;;7.97;1.20;;;11.20;99.90;;;;;;5117285;27;20035;-74
2022/01/22 08:51:58;;;;;;;11.88;1.63;;;9.90;99.90;;;;;;5133582;27;20045;-73
2022/01/22 08:54:23;;;;;;;4.18;1.17;;;12.10;99.90;;;;;;5133292;27;20530;-75
2022/01/22 08:56:49;;;;;;;4.63;1.20;;;9.90;99.90;;;;;;5117945;27;20043;-75
2022/01/22 08:59:15;;;;;;;3.20;1.00;;;9.00;99.90;;;;;;5133801;27;20610;-77
2022/01/22 09:01:42;;;;;;;1.50;0.80;;;11.20;99.90;;;;;;5116710;27;20042;-75
2022/01/22 09:04:09;;;;;;;1.58;0.73;;;9.60;99.90;;;;;;5133784;27;20030;-75
2022/01/22 09:06:35;;;;;;;2.70;0.65;;;9.50;99.90;;;;;;5092995;27;20031;-75
2022/01/22 09:09:11;;;;;;;2.28;0.80;;;11.10;99.90;;;;;;5104741;27;20462;-75
2022/01/22 09:11:40;;;;;;;3.03;0.93;;;9.10;99.90;;;;;;5133930;27;20031;-74
2022/01/22 09:14:08;;;;;;;3.10;0.85;;;9.20;99.90;;;;;;5132806;27;20146;-75
2022/01/22 09:16:35;;;;;;;4.82;1.02;;;9.30;99.90;;;;;;5115411;27;20527;-77
2022/01/22 09:19:06;;;;;;;3.42;0.80;;;11.40;99.90;;;;;;5116915;27;20122;-74
2022/01/22 09:21:41;;;;;;;1.80;0.70;;;10.60;99.90;;;;;;5087321;27;20515;-75
2022/01/22 09:24:08;;;;;;;3.53;0.70;;;10.00;99.90;;;;;;5113213;27;20045;-73
2022/01/22 09:26:34;;;;;;;4.45;0.90;;;9.20;99.90;;;;;;5131886;27;20035;-75
2022/01/22 09:29:00;;;;;;;3.38;0.80;;;11.10;99.90;;;;;;5132197;27;20061;-77
2022/01/22 09:31:33;;;;;;;2.75;1.00;;;9.60;99.90;;;;;;5115529;27;20515;-75
2022/01/22 09:34:01;;;;;;;4.28;0.80;;;9.30;99.90;;;;;;5083558;27;20394;-76
2022/01/22 09:36:29;;;;;;;2.83;1.00;;;9.40;99.90;;;;;;5129135;27;20106;-75
2022/01/22 09:38:56;;;;;;;2.58;0.77;;;11.30;99.90;;;;;;5110721;27;20043;-78
2022/01/22 09:41:24;;;;;;;2.38;0.90;;;10.50;99.90;;;;;;5110995;27;20035;-74
2022/01/22 09:43:50;;;;;;;6.20;0.90;;;9.90;99.90;;;;;;5125275;27;20133;-75
2022/01/22 09:46:16;;;;;;;3.58;1.00;;;9.90;99.90;;;;;;5097921;27;20818;-77
2022/01/22 09:48:46;;;;;;;2.88;1.48;;;9.20;99.90;;;;;;5122161;27;20070;-73
2022/01/22 09:51:13;;;;;;;2.35;1.17;;;12.10;99.90;;;;;;5124869;27;20581;-75
2022/01/22 09:53:43;;;;;;;6.63;1.20;;;10.20;99.90;;;;;;5126270;27;20097;-75
2022/01/22 09:56:10;;;;;;;4.30;0.95;;;10.00;99.90;;;;;;5127331;27;20570;-76
2022/01/22 09:58:36;;;;;;;5.93;1.30;;;9.50;99.90;;;;;;5119195;27;20129;-73
2022/01/22 10:01:28;;;;;;;2.47;0.80;;;11.20;99.90;;;;;;5111948;27;20127;-73
2022/01/22 10:03:56;;;;;;;5.53;1.10;;;9.70;99.90;;;;;;5104039;27;20054;-75
2022/01/22 10:06:28;;;;;;;5.53;0.90;;;12.00;99.90;;;;;;5099294;27;20089;-75
2022/01/22 10:09:23;;;;;;;5.57;1.02;;;11.50;99.90;;;;;;5125939;27;20066;-76
2022/01/22 10:12:16;;;;;;;2.65;0.70;;;11.60;99.90;;;;;;5116497;27;20099;-75
2022/01/22 10:15:03;;;;;;;4.60;0.88;;;12.30;99.90;;;;;;5127564;27;20502;-76
2022/01/22 10:17:47;;;;;;;5.80;1.05;;;11.60;99.90;;;;;;5127533;27;20087;-75
2022/01/22 10:20:25;;;;;;;4.40;1.02;;;11.90;99.90;;;;;;5126512;27;20054;-75
2022/01/22 10:23:02;;;;;;;8.40;1.33;;;12.30;99.90;;;;;;5127475;27;20038;-75
2022/01/22 10:25:33;;;;;;;6.35;1.50;;;9.60;99.90;;;;;;5126946;27;20120;-74
2022/01/22 10:28:14;;;;;;;4.45;0.90;;;11.10;99.90;;;;;;5126107;27;20110;-71
2022/01/22 10:30:43;;;;;;;5.07;0.98;;;10.70;99.90;;;;;;5126682;27;20042;-72
2022/01/22 10:33:23;;;;;;;6.00;1.33;;;11.00;99.90;;;;;;5126510;27;20043;-75
2022/01/22 10:35:48;;;;;;;4.53;0.98;;;10.40;99.90;;;;;;5108474;27;20046;-74
2022/01/22 10:38:17;;;;;;;3.33;0.80;;;11.90;99.90;;;;;;5124785;27;20034;-72
2022/01/22 10:40:44;;;;;;;3.85;1.10;;;10.20;99.90;;;;;;5109117;27;20053;-74
2022/01/22 10:46:00;;;;;;;4.03;1.08;;;11.50;99.90;;;;;;5127955;27;20077;-74
2022/01/22 10:48:26;;;;;;;4.20;1.52;;;11.90;99.90;;;;;;5131386;27;20038;-73
2022/01/22 10:51:05;;;;;;;5.00;1.17;;;9.60;99.90;;;;;;5114319;27;20046;-74
2022/01/22 10:53:39;;;;;;;5.50;1.30;;;10.70;99.90;;;;;;5131260;27;20312;-74
2022/01/22 10:56:06;;;;;;;2.38;0.90;;;12.00;99.90;;;;;;5130959;27;20058;-73
2022/01/22 10:58:33;;;;;;;6.72;1.42;;;12.40;99.90;;;;;;5113813;27;20121;-72
2022/01/22 11:01:05;;;;;;;5.10;1.02;;;11.90;99.90;;;;;;5113542;27;20070;-74
2022/01/22 11:03:32;;;;;;;4.88;1.27;;;12.10;99.90;;;;;;5131031;27;20375;-73
2022/01/22 11:06:04;;;;;;;6.43;1.30;;;10.80;99.90;;;;;;5113769;27;20102;-73
2022/01/22 11:08:29;;;;;;;3.65;1.33;;;12.00;99.90;;;;;;5096435;27;20107;-74
2022/01/22 11:10:55;;;;;;;6.05;1.20;;;11.50;99.90;;;;;;5105447;27;20050;-73
2022/01/22 11:13:21;;;;;;;6.43;1.80;;;11.60;99.90;;;;;;5106958;27;20050;-74
2022/01/22 11:15:50;;;;;;;2.85;1.00;;;12.10;99.90;;;;;;5086775;27;20035;-74
2022/01/22 11:18:21;;;;;;;5.10;1.10;;;9.50;99.90;;;;;;5112212;27;20062;-74
2022/01/22 11:20:48;;;;;;;2.67;1.10;;;12.40;99.90;;;;;;5128154;27;20745;-71
2022/01/22 11:23:17;;;;;;;5.57;2.05;;;10.50;99.90;;;;;;5113259;27;20081;-74
2022/01/22 11:25:43;;;;;;;4.55;1.10;;;11.20;99.90;;;;;;5113662;27;20129;-76
2022/01/22 11:28:09;;;;;;;2.70;0.90;;;10.40;99.90;;;;;;5095862;27;20547;-74
2022/01/22 11:30:36;;;;;;;6.78;1.60;;;9.90;99.90;;;;;;5113180;27;20038;-74
2022/01/22 11:33:06;;;;;;;4.80;1.40;;;12.40;99.90;;;;;;5129906;27;20042;-74
2022/01/22 11:35:44;;;;;;;7.35;1.60;;;11.90;99.90;;;;;;5113255;27;20069;-73
2022/01/22 11:38:18;;;;;;;3.80;1.10;;;12.00;99.90;;;;;;5113156;27;20066;-71
2022/01/22 11:41:19;;;;;;;8.95;2.05;;;11.50;99.90;;;;;;5130177;27;20364;-73
2022/01/22 11:46:36;;;;;;;6.45;1.60;;;11.70;99.90;;;;;;5130290;27;20813;-73
2022/01/22 11:49:36;;;;;;;5.63;1.48;;;11.10;99.90;;;;;;5111791;27;20146;-72
2022/01/22 11:52:08;;;;;;;5.78;1.90;;;12.40;99.90;;;;;;5129081;27;20038;-74
2022/01/22 11:54:54;;;;;;;4.20;1.75;;;9.60;99.90;;;;;;5130156;27;20043;-72
2022/01/22 11:57:20;;;;;;;7.15;1.63;;;12.50;99.90;;;;;;5128891;27;20785;-71
2022/01/22 11:59:46;;;;;;;4.40;1.38;;;11.20;99.90;;;;;;5112268;27;20096;-73
2022/01/22 12:02:13;;;;;;;4.10;1.50;;;9.50;99.90;;;;;;5111905;27;20087;-73
2022/01/22 12:04:39;;;;;;;7.88;2.13;;;10.20;99.90;;;;;;5112844;27;20471;-74
2022/01/22 12:07:05;;;;;;;5.65;1.80;;;10.00;99.90;;;;;;5129492;27;20099;-73
2022/01/22 12:09:36;;;;;;;5.78;2.00;;;10.00;99.90;;;;;;5107708;27;20126;-75
2022/01/22 12:15:09;;;;;;;8.02;2.45;;;12.60;99.90;;;;;;5130101;27;20093;-75
2022/01/22 12:17:47;;;;;;;10.68;2.15;;;9.60;99.90;;;;;;5114056;27;20058;-77
2022/01/22 12:21:30;;;;;;;7.05;2.03;;;10.30;99.90;;;;;;5113603;27;20043;-78
2022/01/22 12:23:37;;;;;;;5.88;1.98;;;11.20;99.90;;;;;;5128693;27;20046;-77
2022/01/22 12:26:03;;;;;;;5.78;2.30;;;12.20;99.90;;;;;;5113461;27;20102;-77
2022/01/22 12:28:49;;;;;;;8.27;2.25;;;11.80;99.90;;;;;;5114071;27;20553;-78
2022/01/22 12:31:16;;;;;;;;;;;11.50;99.90;;;;;;5115438;27;20050;-77
2022/01/22 12:33:42;;;;;;;10.63;2.83;;;12.00;99.90;;;;;;5113171;27;19976;-77
2022/01/22 12:36:18;;;;;;;10.27;4.10;;;12.50;99.90;;;;;;5114197;27;20050;-78
2022/01/22 12:38:48;;;;;;;15.98;3.83;;;11.30;99.90;;;;;;5114451;27;20038;-77
2022/01/22 12:44:34;;;;;;;11.02;3.05;;;12.30;99.90;;;;;;5129451;27;20055;-77
2022/01/22 12:47:06;;;;;;;11.75;3.22;;;12.20;99.90;;;;;;5130361;27;20050;-77
2022/01/22 12:49:33;;;;;;;10.32;3.03;;;11.80;99.90;;;;;;5113851;27;20042;-78
2022/01/22 12:52:03;;;;;;;8.95;3.28;;;9.40;99.90;;;;;;5114882;27;20050;-78
2022/01/22 12:54:44;;;;;;;13.30;4.00;;;11.50;99.90;;;;;;5114949;27;20095;-78
2022/01/22 12:57:13;;;;;;;15.05;3.22;;;10.90;99.90;;;;;;5109689;27;20092;-77
2022/01/22 12:59:50;;;;;;;10.27;3.22;;;9.40;99.90;;;;;;5119894;27;20606;-75
2022/01/22 13:02:17;;;;;;;14.93;3.45;;;10.40;99.90;;;;;;5106139;27;20030;-75
2022/01/22 13:04:59;;;;;;;15.63;3.90;;;9.70;99.90;;;;;;5129346;27;20045;-76
2022/01/22 13:07:26;;;;;;;11.40;3.47;;;9.90;99.90;;;;;;5128838;27;20123;-77
2022/01/22 13:09:56;;;;;;;8.85;3.53;;;9.90;99.90;;;;;;5127834;27;20046;-76
2022/01/22 13:12:24;;;;;;;14.20;4.43;;;11.70;99.90;;;;;;5128351;27;20034;-75
2022/01/22 13:14:56;;;;;;;13.63;4.13;;;10.40;99.90;;;;;;5127030;27;20384;-75
2022/01/22 13:17:32;;;;;;;14.57;3.90;;;9.90;99.90;;;;;;5111232;27;20084;-75
2022/01/22 13:19:59;;;;;;;12.63;3.97;;;10.80;99.90;;;;;;5122920;27;20039;-75
2022/01/22 13:22:38;;;;;;;13.90;3.85;;;9.50;99.90;;;;;;5107789;27;20103;-76
2022/01/22 13:25:10;;;;;;;10.00;3.92;;;11.60;99.90;;;;;;5113705;27;20089;-76
2022/01/22 13:27:38;;;;;;;12.23;4.35;;;9.90;99.90;;;;;;5138040;27;20063;-76
2022/01/22 13:30:07;;;;;;;10.32;3.72;;;12.20;99.90;;;;;;5115451;27;20682;-75
2022/01/22 13:32:59;;;;;;;12.10;3.97;;;9.40;99.90;;;;;;5108044;27;20046;-77
2022/01/22 13:35:34;;;;;;;13.30;3.20;;;9.90;99.90;;;;;;5116685;27;20122;-75
2022/01/22 13:45:06;;;;;;;6.13;2.95;;;11.30;99.90;;;;;;5127573;27;20379;-74
2022/01/22 13:49:44;;;;;;;8.93;3.05;;;11.50;99.90;;;;;;5097297;27;20057;-74
2022/01/22 13:52:15;;;;;;;8.65;2.88;;;10.30;99.90;;;;;;5127384;27;20053;-75
2022/01/22 13:54:48;;;;;;;7.13;2.70;;;11.40;99.90;;;;;;5110450;27;20046;-74
2022/01/22 13:57:16;;;;;;;14.63;2.70;;;11.70;99.90;;;;;;5126968;27;20042;-74
2022/01/22 13:59:45;;;;;;;7.20;2.20;;;11.70;99.90;;;;;;5110542;27;20129;-74
2022/01/22 14:04:50;;;;;;;8.00;2.20;;;9.60;99.90;;;;;;5128170;27;20057;-75
2022/01/22 14:07:23;;;;;;;10.35;2.50;;;11.70;99.90;;;;;;5126534;27;20043;-75
2022/01/22 14:09:54;;;;;;;14.27;3.03;;;11.10;99.90;;;;;;5108648;27;20523;-73
2022/01/22 14:12:20;;;;;;;6.78;1.92;;;10.40;99.90;;;;;;5107419;27;20125;-74
2022/01/22 14:15:15;;;;;;;10.82;2.10;;;11.00;99.90;;;;;;5089990;27;20074;-75
2022/01/22 14:20:54;;;;;;;9.02;2.28;;;9.70;99.90;;;;;;5112299;27;20041;-74
2022/01/22 14:23:23;;;;;;;8.13;2.40;;;11.60;99.90;;;;;;5127150;27;20134;-73
2022/01/22 14:26:11;;;;;;;10.32;2.75;;;9.40;99.90;;;;;;5127604;27;20415;-74
2022/01/22 14:28:49;;;;;;;9.32;2.80;;;9.30;99.90;;;;;;5109472;27;20062;-75
2022/01/22 14:31:19;;;;;;;7.60;2.05;;;9.50;99.90;;;;;;5126241;27;20042;-74
2022/01/22 14:33:44;;;;;;;6.22;2.00;;;10.50;99.90;;;;;;5126781;27;20057;-73
2022/01/22 14:36:20;;;;;;;11.52;2.47;;;11.40;99.90;;;;;;5109721;27;20393;-75